sensor_id;sensor_type;location;lat;lon;timestamp;P1;durP1;ratioP1;P2;durP2;ratioP2
54271;SDS011;40184;53.362;5.216;2022-12-26T00:00:21;110.45;;;39.50;;
54271;SDS011;40184;53.362;5.216;2022-12-26T00:02:46;98.30;;;37.22;;
54271;SDS011;40184;53.362;5.216;2022-12-26T00:05:12;161.52;;;39.13;;
54271;SDS011;40184;53.362;5.216;2022-12-26T00:07:38;158.43;;;40.50;;
54271;SDS011;40184;53.362;5.216;2022-12-26T00:10:03;118.47;;;38.33;;
54271;SDS011;40184;53.362;5.216;2022-12-26T00:12:29;95.10;;;35.58;;
54271;SDS011;40184;53.362;5.216;2022-12-26T00:14:55;173.02;;;38.85;;
54271;SDS011;40184;53.362;5.216;2022-12-26T00:17:20;100.15;;;35.08;;
54271;SDS011;40184;53.362;5.216;2022-12-26T00:19:46;140.00;;;37.30;;
54271;SDS011;40184;53.362;5.216;2022-12-26T00:22:12;104.68;;;36.85;;
54271;SDS011;40184;53.362;5.216;2022-12-26T00:24:39;100.32;;;36.15;;
54271;SDS011;40184;53.362;5.216;2022-12-26T00:27:05;96.30;;;35.50;;
54271;SDS011;40184;53.362;5.216;2022-12-26T00:29:31;74.22;;;36.05;;
54271;SDS011;40184;53.362;5.216;2022-12-26T00:31:56;82.57;;;34.05;;
54271;SDS011;40184;53.362;5.216;2022-12-26T00:34:22;74.65;;;32.85;;
54271;SDS011;40184;53.362;5.216;2022-12-26T00:36:48;67.57;;;32.78;;
54271;SDS011;40184;53.362;5.216;2022-12-26T00:39:13;65.30;;;30.98;;
54271;SDS011;40184;53.362;5.216;2022-12-26T00:41:41;65.22;;;29.13;;
54271;SDS011;40184;53.362;5.216;2022-12-26T00:44:07;65.95;;;30.75;;
54271;SDS011;40184;53.362;5.216;2022-12-26T00:46:33;63.92;;;30.05;;
54271;SDS011;40184;53.362;5.216;2022-12-26T00:48:58;76.65;;;32.38;;
54271;SDS011;40184;53.362;5.216;2022-12-26T00:51:24;72.18;;;30.88;;
54271;SDS011;40184;53.362;5.216;2022-12-26T00:53:50;65.82;;;31.67;;
54271;SDS011;40184;53.362;5.216;2022-12-26T00:56:16;73.57;;;30.63;;
54271;SDS011;40184;53.362;5.216;2022-12-26T00:58:42;71.43;;;29.92;;
54271;SDS011;40184;53.362;5.216;2022-12-26T01:01:12;59.60;;;28.75;;
54271;SDS011;40184;53.362;5.216;2022-12-26T01:03:40;53.70;;;26.55;;
54271;SDS011;40184;53.362;5.216;2022-12-26T01:06:06;62.53;;;30.33;;
54271;SDS011;40184;53.362;5.216;2022-12-26T01:08:32;63.45;;;30.27;;
54271;SDS011;40184;53.362;5.216;2022-12-26T01:11:01;67.30;;;29.73;;
54271;SDS011;40184;53.362;5.216;2022-12-26T01:13:28;63.42;;;28.55;;
54271;SDS011;40184;53.362;5.216;2022-12-26T01:15:54;67.18;;;29.38;;
54271;SDS011;40184;53.362;5.216;2022-12-26T01:18:20;60.05;;;30.67;;
54271;SDS011;40184;53.362;5.216;2022-12-26T01:20:46;57.92;;;29.60;;
54271;SDS011;40184;53.362;5.216;2022-12-26T01:23:12;57.47;;;28.10;;
54271;SDS011;40184;53.362;5.216;2022-12-26T01:25:38;65.63;;;30.13;;
54271;SDS011;40184;53.362;5.216;2022-12-26T01:28:04;60.10;;;29.77;;
54271;SDS011;40184;53.362;5.216;2022-12-26T01:30:30;64.30;;;29.75;;
54271;SDS011;40184;53.362;5.216;2022-12-26T01:32:55;61.92;;;29.17;;
54271;SDS011;40184;53.362;5.216;2022-12-26T01:35:21;68.88;;;32.03;;
54271;SDS011;40184;53.362;5.216;2022-12-26T01:37:47;73.90;;;31.02;;
54271;SDS011;40184;53.362;5.216;2022-12-26T01:40:13;73.25;;;33.30;;
54271;SDS011;40184;53.362;5.216;2022-12-26T01:42:39;79.60;;;33.00;;
54271;SDS011;40184;53.362;5.216;2022-12-26T01:45:16;65.75;;;31.30;;
54271;SDS011;40184;53.362;5.216;2022-12-26T01:50:42;71.60;;;29.90;;
54271;SDS011;40184;53.362;5.216;2022-12-26T01:55:42;74.22;;;31.85;;
54271;SDS011;40184;53.362;5.216;2022-12-26T01:58:17;72.00;;;31.98;;
54271;SDS011;40184;53.362;5.216;2022-12-26T02:00:47;66.28;;;28.15;;
54271;SDS011;40184;53.362;5.216;2022-12-26T02:03:13;73.13;;;29.67;;
54271;SDS011;40184;53.362;5.216;2022-12-26T02:05:58;76.63;;;30.20;;
54271;SDS011;40184;53.362;5.216;2022-12-26T02:08:28;77.10;;;29.45;;
54271;SDS011;40184;53.362;5.216;2022-12-26T02:10:58;63.55;;;27.88;;
54271;SDS011;40184;53.362;5.216;2022-12-26T02:13:40;62.75;;;27.60;;
54271;SDS011;40184;53.362;5.216;2022-12-26T02:16:07;67.82;;;27.38;;
54271;SDS011;40184;53.362;5.216;2022-12-26T02:18:35;56.45;;;26.05;;
54271;SDS011;40184;53.362;5.216;2022-12-26T02:40:32;47.97;;;19.48;;
54271;SDS011;40184;53.362;5.216;2022-12-26T02:46:04;63.28;;;22.17;;
54271;SDS011;40184;53.362;5.216;2022-12-26T02:57:23;49.80;;;19.30;;
54271;SDS011;40184;53.362;5.216;2022-12-26T03:00:16;46.17;;;19.73;;
54271;SDS011;40184;53.362;5.216;2022-12-26T03:03:03;49.00;;;20.92;;
54271;SDS011;40184;53.362;5.216;2022-12-26T03:06:04;50.05;;;20.42;;
54271;SDS011;40184;53.362;5.216;2022-12-26T03:08:54;59.25;;;19.83;;
54271;SDS011;40184;53.362;5.216;2022-12-26T03:11:42;44.88;;;17.98;;
54271;SDS011;40184;53.362;5.216;2022-12-26T03:17:14;51.83;;;19.15;;
54271;SDS011;40184;53.362;5.216;2022-12-26T03:19:54;43.58;;;18.45;;
54271;SDS011;40184;53.362;5.216;2022-12-26T03:23:09;47.30;;;18.33;;
54271;SDS011;40184;53.362;5.216;2022-12-26T03:25:12;41.13;;;17.52;;
54271;SDS011;40184;53.362;5.216;2022-12-26T03:28:03;56.65;;;18.88;;
54271;SDS011;40184;53.362;5.216;2022-12-26T03:30:29;44.63;;;17.15;;
54271;SDS011;40184;53.362;5.216;2022-12-26T03:33:16;49.47;;;19.02;;
54271;SDS011;40184;53.362;5.216;2022-12-26T03:36:01;45.70;;;16.27;;
54271;SDS011;40184;53.362;5.216;2022-12-26T03:38:40;45.85;;;16.02;;
54271;SDS011;40184;53.362;5.216;2022-12-26T03:41:32;39.25;;;15.48;;
54271;SDS011;40184;53.362;5.216;2022-12-26T03:45:02;42.25;;;14.13;;
54271;SDS011;40184;53.362;5.216;2022-12-26T03:47:57;44.08;;;14.35;;
54271;SDS011;40184;53.362;5.216;2022-12-26T03:51:01;32.90;;;12.40;;
54271;SDS011;40184;53.362;5.216;2022-12-26T03:54:10;36.95;;;11.80;;
54271;SDS011;40184;53.362;5.216;2022-12-26T03:57:11;37.33;;;12.65;;
54271;SDS011;40184;53.362;5.216;2022-12-26T04:00:04;25.95;;;11.52;;
54271;SDS011;40184;53.362;5.216;2022-12-26T04:02:55;24.48;;;10.40;;
54271;SDS011;40184;53.362;5.216;2022-12-26T04:05:44;33.10;;;10.52;;
54271;SDS011;40184;53.362;5.216;2022-12-26T04:09:06;28.75;;;9.25;;
54271;SDS011;40184;53.362;5.216;2022-12-26T04:14:37;25.23;;;8.98;;
54271;SDS011;40184;53.362;5.216;2022-12-26T04:17:32;28.73;;;10.73;;
54271;SDS011;40184;53.362;5.216;2022-12-26T04:23:14;28.90;;;8.82;;
54271;SDS011;40184;53.362;5.216;2022-12-26T04:26:16;30.67;;;9.70;;
54271;SDS011;40184;53.362;5.216;2022-12-26T04:29:07;31.08;;;9.15;;
54271;SDS011;40184;53.362;5.216;2022-12-26T04:34:44;20.52;;;6.47;;
54271;SDS011;40184;53.362;5.216;2022-12-26T04:37:33;28.23;;;6.00;;
54271;SDS011;40184;53.362;5.216;2022-12-26T04:40:21;32.83;;;6.43;;
54271;SDS011;40184;53.362;5.216;2022-12-26T04:43:09;26.40;;;6.13;;
54271;SDS011;40184;53.362;5.216;2022-12-26T04:45:55;36.70;;;6.63;;
54271;SDS011;40184;53.362;5.216;2022-12-26T04:48:21;23.38;;;5.20;;
54271;SDS011;40184;53.362;5.216;2022-12-26T04:51:16;26.85;;;5.35;;
54271;SDS011;40184;53.362;5.216;2022-12-26T04:53:41;26.52;;;6.57;;
54271;SDS011;40184;53.362;5.216;2022-12-26T04:56:07;29.25;;;5.03;;
54271;SDS011;40184;53.362;5.216;2022-12-26T04:58:34;26.48;;;5.13;;
54271;SDS011;40184;53.362;5.216;2022-12-26T05:01:00;30.70;;;6.65;;
54271;SDS011;40184;53.362;5.216;2022-12-26T05:03:44;31.23;;;5.28;;
54271;SDS011;40184;53.362;5.216;2022-12-26T05:06:28;39.22;;;6.78;;
54271;SDS011;40184;53.362;5.216;2022-12-26T05:09:13;38.15;;;5.70;;
54271;SDS011;40184;53.362;5.216;2022-12-26T05:11:58;29.95;;;6.18;;
54271;SDS011;40184;53.362;5.216;2022-12-26T05:14:24;34.53;;;7.18;;
54271;SDS011;40184;53.362;5.216;2022-12-26T05:16:49;29.13;;;5.65;;
54271;SDS011;40184;53.362;5.216;2022-12-26T05:19:33;31.80;;;6.75;;
54271;SDS011;40184;53.362;5.216;2022-12-26T05:22:18;36.47;;;6.78;;
54271;SDS011;40184;53.362;5.216;2022-12-26T05:25:03;38.10;;;8.20;;
54271;SDS011;40184;53.362;5.216;2022-12-26T05:27:51;31.48;;;7.47;;
54271;SDS011;40184;53.362;5.216;2022-12-26T05:30:35;37.20;;;8.10;;
54271;SDS011;40184;53.362;5.216;2022-12-26T05:33:01;29.05;;;7.13;;
54271;SDS011;40184;53.362;5.216;2022-12-26T05:35:45;29.63;;;5.95;;
54271;SDS011;40184;53.362;5.216;2022-12-26T05:38:10;33.08;;;9.07;;
54271;SDS011;40184;53.362;5.216;2022-12-26T05:40:36;31.88;;;8.02;;
54271;SDS011;40184;53.362;5.216;2022-12-26T05:43:02;34.90;;;8.15;;
54271;SDS011;40184;53.362;5.216;2022-12-26T05:45:28;36.17;;;7.35;;
54271;SDS011;40184;53.362;5.216;2022-12-26T05:47:57;41.22;;;7.60;;
54271;SDS011;40184;53.362;5.216;2022-12-26T05:50:24;31.05;;;6.38;;
54271;SDS011;40184;53.362;5.216;2022-12-26T05:52:49;45.83;;;8.45;;
54271;SDS011;40184;53.362;5.216;2022-12-26T05:55:15;31.48;;;7.85;;
54271;SDS011;40184;53.362;5.216;2022-12-26T05:57:41;34.88;;;9.15;;
54271;SDS011;40184;53.362;5.216;2022-12-26T06:00:06;32.05;;;8.45;;
54271;SDS011;40184;53.362;5.216;2022-12-26T06:02:33;35.70;;;6.88;;
54271;SDS011;40184;53.362;5.216;2022-12-26T06:04:58;40.28;;;9.02;;
54271;SDS011;40184;53.362;5.216;2022-12-26T06:07:24;36.15;;;8.73;;
54271;SDS011;40184;53.362;5.216;2022-12-26T06:09:50;42.55;;;9.90;;
54271;SDS011;40184;53.362;5.216;2022-12-26T06:12:15;34.30;;;7.90;;
54271;SDS011;40184;53.362;5.216;2022-12-26T06:14:41;34.85;;;8.02;;
54271;SDS011;40184;53.362;5.216;2022-12-26T06:17:07;28.77;;;6.90;;
54271;SDS011;40184;53.362;5.216;2022-12-26T06:19:32;39.42;;;8.65;;
54271;SDS011;40184;53.362;5.216;2022-12-26T06:21:58;38.28;;;8.45;;
54271;SDS011;40184;53.362;5.216;2022-12-26T06:24:24;35.65;;;6.00;;
54271;SDS011;40184;53.362;5.216;2022-12-26T06:26:49;33.08;;;6.38;;
54271;SDS011;40184;53.362;5.216;2022-12-26T06:29:15;39.42;;;8.10;;
54271;SDS011;40184;53.362;5.216;2022-12-26T06:31:41;36.40;;;6.45;;
54271;SDS011;40184;53.362;5.216;2022-12-26T06:34:06;34.50;;;6.50;;
54271;SDS011;40184;53.362;5.216;2022-12-26T06:36:34;47.88;;;7.82;;
54271;SDS011;40184;53.362;5.216;2022-12-26T06:39:00;32.25;;;5.53;;
54271;SDS011;40184;53.362;5.216;2022-12-26T06:41:26;35.58;;;5.95;;
54271;SDS011;40184;53.362;5.216;2022-12-26T06:43:52;47.67;;;6.90;;
54271;SDS011;40184;53.362;5.216;2022-12-26T06:46:19;37.10;;;6.57;;
54271;SDS011;40184;53.362;5.216;2022-12-26T06:48:46;40.00;;;6.38;;
54271;SDS011;40184;53.362;5.216;2022-12-26T06:51:14;37.65;;;6.38;;
54271;SDS011;40184;53.362;5.216;2022-12-26T06:53:41;46.88;;;7.85;;
54271;SDS011;40184;53.362;5.216;2022-12-26T06:56:08;35.05;;;6.88;;
54271;SDS011;40184;53.362;5.216;2022-12-26T06:58:39;39.13;;;7.53;;
54271;SDS011;40184;53.362;5.216;2022-12-26T07:01:12;37.03;;;7.53;;
54271;SDS011;40184;53.362;5.216;2022-12-26T07:03:40;51.55;;;9.23;;
54271;SDS011;40184;53.362;5.216;2022-12-26T07:06:09;44.67;;;7.45;;
54271;SDS011;40184;53.362;5.216;2022-12-26T07:08:37;49.17;;;7.82;;
54271;SDS011;40184;53.362;5.216;2022-12-26T07:11:03;39.53;;;7.72;;
54271;SDS011;40184;53.362;5.216;2022-12-26T07:13:29;44.97;;;7.72;;
54271;SDS011;40184;53.362;5.216;2022-12-26T07:15:58;57.03;;;9.20;;
54271;SDS011;40184;53.362;5.216;2022-12-26T07:18:24;54.30;;;8.77;;
54271;SDS011;40184;53.362;5.216;2022-12-26T07:20:49;43.75;;;7.63;;
54271;SDS011;40184;53.362;5.216;2022-12-26T07:23:15;39.20;;;8.35;;
54271;SDS011;40184;53.362;5.216;2022-12-26T07:25:41;49.05;;;7.72;;
54271;SDS011;40184;53.362;5.216;2022-12-26T07:28:06;54.15;;;9.15;;
54271;SDS011;40184;53.362;5.216;2022-12-26T07:30:32;43.10;;;8.32;;
54271;SDS011;40184;53.362;5.216;2022-12-26T07:32:58;52.30;;;8.25;;
54271;SDS011;40184;53.362;5.216;2022-12-26T07:35:23;39.80;;;6.32;;
54271;SDS011;40184;53.362;5.216;2022-12-26T07:37:49;38.28;;;7.32;;
54271;SDS011;40184;53.362;5.216;2022-12-26T07:40:15;46.47;;;8.75;;
54271;SDS011;40184;53.362;5.216;2022-12-26T07:42:41;48.72;;;8.43;;
54271;SDS011;40184;53.362;5.216;2022-12-26T07:45:07;42.60;;;7.75;;
54271;SDS011;40184;53.362;5.216;2022-12-26T07:47:33;40.88;;;6.68;;
54271;SDS011;40184;53.362;5.216;2022-12-26T07:49:59;39.88;;;7.05;;
54271;SDS011;40184;53.362;5.216;2022-12-26T07:52:24;39.58;;;6.97;;
54271;SDS011;40184;53.362;5.216;2022-12-26T07:54:50;35.83;;;4.93;;
54271;SDS011;40184;53.362;5.216;2022-12-26T07:57:16;31.52;;;6.18;;
54271;SDS011;40184;53.362;5.216;2022-12-26T07:59:42;29.05;;;5.75;;
54271;SDS011;40184;53.362;5.216;2022-12-26T08:02:08;48.42;;;6.75;;
54271;SDS011;40184;53.362;5.216;2022-12-26T08:04:34;53.25;;;7.70;;
54271;SDS011;40184;53.362;5.216;2022-12-26T08:07:00;44.40;;;5.93;;
54271;SDS011;40184;53.362;5.216;2022-12-26T08:09:25;28.58;;;6.35;;
54271;SDS011;40184;53.362;5.216;2022-12-26T08:11:51;38.42;;;5.80;;
54271;SDS011;40184;53.362;5.216;2022-12-26T08:14:17;40.25;;;7.05;;
54271;SDS011;40184;53.362;5.216;2022-12-26T08:16:42;32.35;;;5.43;;
54271;SDS011;40184;53.362;5.216;2022-12-26T08:19:09;25.40;;;4.38;;
54271;SDS011;40184;53.362;5.216;2022-12-26T08:21:35;47.13;;;9.32;;
54271;SDS011;40184;53.362;5.216;2022-12-26T08:24:01;45.10;;;8.02;;
54271;SDS011;40184;53.362;5.216;2022-12-26T08:26:27;46.75;;;7.85;;
54271;SDS011;40184;53.362;5.216;2022-12-26T08:28:53;38.80;;;7.68;;
54271;SDS011;40184;53.362;5.216;2022-12-26T08:31:20;42.03;;;7.03;;
54271;SDS011;40184;53.362;5.216;2022-12-26T08:33:46;32.67;;;7.70;;
54271;SDS011;40184;53.362;5.216;2022-12-26T08:36:12;36.00;;;7.95;;
54271;SDS011;40184;53.362;5.216;2022-12-26T08:38:41;40.25;;;8.57;;
54271;SDS011;40184;53.362;5.216;2022-12-26T08:41:07;41.72;;;7.40;;
54271;SDS011;40184;53.362;5.216;2022-12-26T08:43:33;28.95;;;6.18;;
54271;SDS011;40184;53.362;5.216;2022-12-26T08:48:32;40.78;;;6.72;;
54271;SDS011;40184;53.362;5.216;2022-12-26T08:51:02;34.78;;;5.78;;
54271;SDS011;40184;53.362;5.216;2022-12-26T08:53:31;40.10;;;8.80;;
54271;SDS011;40184;53.362;5.216;2022-12-26T08:56:00;34.05;;;6.80;;
54271;SDS011;40184;53.362;5.216;2022-12-26T08:58:28;41.75;;;8.43;;
54271;SDS011;40184;53.362;5.216;2022-12-26T09:00:54;48.15;;;8.57;;
54271;SDS011;40184;53.362;5.216;2022-12-26T09:03:20;34.33;;;7.35;;
54271;SDS011;40184;53.362;5.216;2022-12-26T09:05:46;28.98;;;6.93;;
54271;SDS011;40184;53.362;5.216;2022-12-26T09:08:12;46.53;;;8.70;;
54271;SDS011;40184;53.362;5.216;2022-12-26T09:10:38;57.42;;;10.27;;
54271;SDS011;40184;53.362;5.216;2022-12-26T09:13:03;34.42;;;8.30;;
54271;SDS011;40184;53.362;5.216;2022-12-26T09:15:29;43.50;;;7.20;;
54271;SDS011;40184;53.362;5.216;2022-12-26T09:17:55;33.17;;;6.18;;
54271;SDS011;40184;53.362;5.216;2022-12-26T09:20:21;21.77;;;4.07;;
54271;SDS011;40184;53.362;5.216;2022-12-26T09:22:46;24.13;;;4.40;;
54271;SDS011;40184;53.362;5.216;2022-12-26T09:25:18;26.75;;;4.03;;
54271;SDS011;40184;53.362;5.216;2022-12-26T09:27:46;24.92;;;4.53;;
54271;SDS011;40184;53.362;5.216;2022-12-26T09:30:12;29.05;;;6.43;;
54271;SDS011;40184;53.362;5.216;2022-12-26T09:32:38;36.20;;;5.43;;
54271;SDS011;40184;53.362;5.216;2022-12-26T09:35:05;31.63;;;5.25;;
54271;SDS011;40184;53.362;5.216;2022-12-26T09:37:31;23.15;;;4.78;;
54271;SDS011;40184;53.362;5.216;2022-12-26T09:39:57;26.65;;;4.63;;
54271;SDS011;40184;53.362;5.216;2022-12-26T09:42:27;25.08;;;4.88;;
54271;SDS011;40184;53.362;5.216;2022-12-26T09:45:12;30.20;;;4.97;;
54271;SDS011;40184;53.362;5.216;2022-12-26T09:48:03;25.25;;;4.90;;
54271;SDS011;40184;53.362;5.216;2022-12-26T09:50:43;20.52;;;3.45;;
54271;SDS011;40184;53.362;5.216;2022-12-26T09:53:13;18.23;;;3.67;;
54271;SDS011;40184;53.362;5.216;2022-12-26T09:55:57;18.63;;;4.53;;
54271;SDS011;40184;53.362;5.216;2022-12-26T10:00:56;12.18;;;3.00;;
54271;SDS011;40184;53.362;5.216;2022-12-26T10:03:26;19.50;;;4.70;;
54271;SDS011;40184;53.362;5.216;2022-12-26T10:06:04;14.68;;;3.35;;
54271;SDS011;40184;53.362;5.216;2022-12-26T10:14:02;20.20;;;3.38;;
54271;SDS011;40184;53.362;5.216;2022-12-26T10:24:37;24.27;;;5.18;;
54271;SDS011;40184;53.362;5.216;2022-12-26T10:27:14;22.75;;;4.97;;
54271;SDS011;40184;53.362;5.216;2022-12-26T10:29:46;36.47;;;6.53;;
54271;SDS011;40184;53.362;5.216;2022-12-26T10:32:27;24.27;;;4.63;;
54271;SDS011;40184;53.362;5.216;2022-12-26T10:35:00;25.23;;;5.13;;
54271;SDS011;40184;53.362;5.216;2022-12-26T10:37:28;21.88;;;4.45;;
54271;SDS011;40184;53.362;5.216;2022-12-26T10:43:31;20.33;;;4.07;;
54271;SDS011;40184;53.362;5.216;2022-12-26T10:48:34;22.80;;;4.80;;
54271;SDS011;40184;53.362;5.216;2022-12-26T10:50:59;27.88;;;5.97;;
54271;SDS011;40184;53.362;5.216;2022-12-26T10:53:25;26.27;;;5.13;;
54271;SDS011;40184;53.362;5.216;2022-12-26T10:55:51;22.92;;;4.57;;
54271;SDS011;40184;53.362;5.216;2022-12-26T10:58:20;29.45;;;4.57;;
54271;SDS011;40184;53.362;5.216;2022-12-26T11:00:52;27.58;;;4.53;;
54271;SDS011;40184;53.362;5.216;2022-12-26T11:03:19;24.35;;;4.60;;
54271;SDS011;40184;53.362;5.216;2022-12-26T11:05:50;41.20;;;5.95;;
54271;SDS011;40184;53.362;5.216;2022-12-26T11:08:45;18.15;;;4.38;;
54271;SDS011;40184;53.362;5.216;2022-12-26T11:11:23;28.10;;;4.60;;
54271;SDS011;40184;53.362;5.216;2022-12-26T11:14:14;23.50;;;5.03;;
54271;SDS011;40184;53.362;5.216;2022-12-26T11:19:32;22.52;;;5.10;;
54271;SDS011;40184;53.362;5.216;2022-12-26T11:27:34;39.30;;;5.35;;
54271;SDS011;40184;53.362;5.216;2022-12-26T11:32:41;21.15;;;4.07;;
54271;SDS011;40184;53.362;5.216;2022-12-26T11:35:19;34.78;;;5.43;;
54271;SDS011;40184;53.362;5.216;2022-12-26T11:37:50;19.88;;;4.15;;
54271;SDS011;40184;53.362;5.216;2022-12-26T11:40:19;25.15;;;6.13;;
54271;SDS011;40184;53.362;5.216;2022-12-26T11:42:53;24.20;;;4.60;;
54271;SDS011;40184;53.362;5.216;2022-12-26T11:45:22;20.48;;;5.15;;
54271;SDS011;40184;53.362;5.216;2022-12-26T11:47:50;22.90;;;4.05;;
54271;SDS011;40184;53.362;5.216;2022-12-26T11:50:20;23.17;;;4.00;;
54271;SDS011;40184;53.362;5.216;2022-12-26T12:00:31;19.55;;;4.78;;
54271;SDS011;40184;53.362;5.216;2022-12-26T12:03:01;28.75;;;5.80;;
54271;SDS011;40184;53.362;5.216;2022-12-26T12:05:53;32.50;;;5.15;;
54271;SDS011;40184;53.362;5.216;2022-12-26T12:14:26;27.27;;;4.18;;
54271;SDS011;40184;53.362;5.216;2022-12-26T12:17:06;26.10;;;5.80;;
54271;SDS011;40184;53.362;5.216;2022-12-26T12:19:42;24.00;;;5.03;;
54271;SDS011;40184;53.362;5.216;2022-12-26T12:25:16;19.95;;;4.50;;
54271;SDS011;40184;53.362;5.216;2022-12-26T12:30:40;27.67;;;4.70;;
54271;SDS011;40184;53.362;5.216;2022-12-26T12:47:40;28.60;;;4.65;;
54271;SDS011;40184;53.362;5.216;2022-12-26T13:01:25;21.25;;;4.30;;
54271;SDS011;40184;53.362;5.216;2022-12-26T13:04:01;28.70;;;5.03;;
54271;SDS011;40184;53.362;5.216;2022-12-26T13:06:51;20.00;;;3.15;;
54271;SDS011;40184;53.362;5.216;2022-12-26T13:09:25;15.82;;;4.03;;
54271;SDS011;40184;53.362;5.216;2022-12-26T13:11:59;16.30;;;3.92;;
54271;SDS011;40184;53.362;5.216;2022-12-26T13:22:24;13.55;;;4.20;;
54271;SDS011;40184;53.362;5.216;2022-12-26T13:25:21;22.90;;;3.13;;
54271;SDS011;40184;53.362;5.216;2022-12-26T13:27:50;21.45;;;4.28;;
54271;SDS011;40184;53.362;5.216;2022-12-26T13:30:20;21.48;;;3.00;;
54271;SDS011;40184;53.362;5.216;2022-12-26T13:32:46;18.48;;;3.35;;
54271;SDS011;40184;53.362;5.216;2022-12-26T13:38:18;21.08;;;3.53;;
54271;SDS011;40184;53.362;5.216;2022-12-26T13:40:45;23.33;;;4.60;;
54271;SDS011;40184;53.362;5.216;2022-12-26T13:43:21;21.52;;;4.20;;
54271;SDS011;40184;53.362;5.216;2022-12-26T14:05:26;19.33;;;3.45;;
54271;SDS011;40184;53.362;5.216;2022-12-26T14:11:46;18.55;;;3.50;;
54271;SDS011;40184;53.362;5.216;2022-12-26T14:13:59;15.80;;;4.13;;
54271;SDS011;40184;53.362;5.216;2022-12-26T14:27:58;22.92;;;3.60;;
54271;SDS011;40184;53.362;5.216;2022-12-26T14:30:53;27.77;;;4.53;;
54271;SDS011;40184;53.362;5.216;2022-12-26T14:41:22;26.40;;;5.60;;
54271;SDS011;40184;53.362;5.216;2022-12-26T14:44:17;25.92;;;6.18;;
54271;SDS011;40184;53.362;5.216;2022-12-26T14:47:01;34.88;;;5.97;;
54271;SDS011;40184;53.362;5.216;2022-12-26T14:52:26;25.52;;;5.18;;
54271;SDS011;40184;53.362;5.216;2022-12-26T14:54:49;24.65;;;8.25;;
54271;SDS011;40184;53.362;5.216;2022-12-26T15:00:23;30.35;;;4.47;;
54271;SDS011;40184;53.362;5.216;2022-12-26T15:03:17;33.25;;;3.95;;
54271;SDS011;40184;53.362;5.216;2022-12-26T15:05:39;22.38;;;4.50;;
54271;SDS011;40184;53.362;5.216;2022-12-26T15:38:58;21.38;;;3.40;;
54271;SDS011;40184;53.362;5.216;2022-12-26T15:47:12;20.15;;;4.47;;
54271;SDS011;40184;53.362;5.216;2022-12-26T15:50:01;28.17;;;4.57;;
54271;SDS011;40184;53.362;5.216;2022-12-26T15:52:55;28.40;;;4.43;;
54271;SDS011;40184;53.362;5.216;2022-12-26T16:01:10;21.30;;;3.78;;
54271;SDS011;40184;53.362;5.216;2022-12-26T16:03:48;21.77;;;4.43;;
54271;SDS011;40184;53.362;5.216;2022-12-26T16:09:35;49.25;;;10.85;;
54271;SDS011;40184;53.362;5.216;2022-12-26T16:14:58;27.48;;;7.47;;
54271;SDS011;40184;53.362;5.216;2022-12-26T16:17:34;46.35;;;8.93;;
54271;SDS011;40184;53.362;5.216;2022-12-26T16:20:15;35.55;;;7.38;;
54271;SDS011;40184;53.362;5.216;2022-12-26T16:22:40;29.88;;;6.65;;
54271;SDS011;40184;53.362;5.216;2022-12-26T16:25:23;29.55;;;5.82;;
54271;SDS011;40184;53.362;5.216;2022-12-26T16:27:51;29.10;;;5.65;;
54271;SDS011;40184;53.362;5.216;2022-12-26T16:30:23;30.98;;;6.13;;
54271;SDS011;40184;53.362;5.216;2022-12-26T16:32:51;25.38;;;5.30;;
54271;SDS011;40184;53.362;5.216;2022-12-26T16:35:25;30.70;;;7.35;;
54271;SDS011;40184;53.362;5.216;2022-12-26T16:37:54;24.73;;;5.50;;
54271;SDS011;40184;53.362;5.216;2022-12-26T16:40:32;27.35;;;5.35;;
54271;SDS011;40184;53.362;5.216;2022-12-26T16:43:05;29.67;;;5.87;;
54271;SDS011;40184;53.362;5.216;2022-12-26T16:45:51;28.65;;;4.57;;
54271;SDS011;40184;53.362;5.216;2022-12-26T16:48:19;27.92;;;4.70;;
54271;SDS011;40184;53.362;5.216;2022-12-26T16:59:01;20.50;;;4.50;;
54271;SDS011;40184;53.362;5.216;2022-12-26T17:01:48;21.13;;;4.35;;
54271;SDS011;40184;53.362;5.216;2022-12-26T17:04:25;32.38;;;5.10;;
54271;SDS011;40184;53.362;5.216;2022-12-26T17:06:53;18.75;;;3.67;;
54271;SDS011;40184;53.362;5.216;2022-12-26T17:09:21;25.90;;;4.15;;
54271;SDS011;40184;53.362;5.216;2022-12-26T17:11:53;25.13;;;5.90;;
54271;SDS011;40184;53.362;5.216;2022-12-26T17:14:27;21.67;;;3.97;;
54271;SDS011;40184;53.362;5.216;2022-12-26T17:17:03;22.42;;;4.97;;
54271;SDS011;40184;53.362;5.216;2022-12-26T17:19:32;21.55;;;4.18;;
54271;SDS011;40184;53.362;5.216;2022-12-26T17:24:37;41.85;;;5.82;;
54271;SDS011;40184;53.362;5.216;2022-12-26T17:27:14;32.40;;;5.47;;
54271;SDS011;40184;53.362;5.216;2022-12-26T17:30:00;21.75;;;4.53;;
54271;SDS011;40184;53.362;5.216;2022-12-26T17:32:44;27.17;;;5.68;;
54271;SDS011;40184;53.362;5.216;2022-12-26T17:35:18;42.10;;;7.97;;
54271;SDS011;40184;53.362;5.216;2022-12-26T17:37:54;33.80;;;9.05;;
54271;SDS011;40184;53.362;5.216;2022-12-26T17:40:36;34.10;;;11.40;;
54271;SDS011;40184;53.362;5.216;2022-12-26T17:45:36;33.15;;;7.50;;
54271;SDS011;40184;53.362;5.216;2022-12-26T17:48:03;31.48;;;5.43;;
54271;SDS011;40184;53.362;5.216;2022-12-26T17:50:32;40.60;;;5.93;;
54271;SDS011;40184;53.362;5.216;2022-12-26T17:53:04;39.63;;;7.15;;
54271;SDS011;40184;53.362;5.216;2022-12-26T17:55:44;25.30;;;5.05;;
54271;SDS011;40184;53.362;5.216;2022-12-26T17:58:10;26.80;;;4.72;;
54271;SDS011;40184;53.362;5.216;2022-12-26T18:00:37;48.70;;;6.88;;
54271;SDS011;40184;53.362;5.216;2022-12-26T18:03:04;42.42;;;7.57;;
54271;SDS011;40184;53.362;5.216;2022-12-26T18:05:29;33.35;;;6.78;;
54271;SDS011;40184;53.362;5.216;2022-12-26T18:07:55;22.40;;;5.35;;
54271;SDS011;40184;53.362;5.216;2022-12-26T18:10:23;32.38;;;5.40;;
54271;SDS011;40184;53.362;5.216;2022-12-26T18:12:52;40.13;;;6.85;;
54271;SDS011;40184;53.362;5.216;2022-12-26T18:15:19;23.48;;;5.57;;
54271;SDS011;40184;53.362;5.216;2022-12-26T18:17:46;30.60;;;6.63;;
54271;SDS011;40184;53.362;5.216;2022-12-26T18:20:17;29.33;;;5.97;;
54271;SDS011;40184;53.362;5.216;2022-12-26T18:22:45;28.42;;;4.68;;
54271;SDS011;40184;53.362;5.216;2022-12-26T18:25:12;24.23;;;4.38;;
54271;SDS011;40184;53.362;5.216;2022-12-26T18:27:39;29.15;;;4.90;;
54271;SDS011;40184;53.362;5.216;2022-12-26T18:30:05;28.70;;;5.30;;
54271;SDS011;40184;53.362;5.216;2022-12-26T18:32:34;36.17;;;6.00;;
54271;SDS011;40184;53.362;5.216;2022-12-26T18:34:59;23.80;;;5.53;;
54271;SDS011;40184;53.362;5.216;2022-12-26T18:37:26;35.70;;;5.82;;
54271;SDS011;40184;53.362;5.216;2022-12-26T18:39:53;14.95;;;2.65;;
54271;SDS011;40184;53.362;5.216;2022-12-26T18:42:19;18.67;;;3.50;;
54271;SDS011;40184;53.362;5.216;2022-12-26T18:44:44;15.07;;;2.95;;
54271;SDS011;40184;53.362;5.216;2022-12-26T18:47:11;30.08;;;10.23;;
54271;SDS011;40184;53.362;5.216;2022-12-26T18:49:38;26.52;;;5.70;;
54271;SDS011;40184;53.362;5.216;2022-12-26T18:52:04;35.50;;;7.85;;
54271;SDS011;40184;53.362;5.216;2022-12-26T18:54:30;26.15;;;6.15;;
54271;SDS011;40184;53.362;5.216;2022-12-26T18:56:56;29.80;;;5.75;;
54271;SDS011;40184;53.362;5.216;2022-12-26T18:59:21;26.90;;;5.95;;
54271;SDS011;40184;53.362;5.216;2022-12-26T19:01:47;17.15;;;4.50;;
54271;SDS011;40184;53.362;5.216;2022-12-26T19:04:16;13.20;;;2.17;;
54271;SDS011;40184;53.362;5.216;2022-12-26T19:06:41;13.93;;;2.90;;
54271;SDS011;40184;53.362;5.216;2022-12-26T19:09:10;18.65;;;3.33;;